Time;durP1;ratioP1;P1;durP2;ratioP2;P2;SDS_P1;SDS_P2;PMS_P1;PMS_P2;Temp;Humidity;BMP_temperature;BMP_pressure;BME280_temperature;BME280_humidity;BME280_pressure;Samples;Min_cycle;Max_cycle;Signal;HPM_P1;HPM_P2
2021/12/04 00:00:22;;;;;;;5.65;4.70;;;-1.40;85.70;-2.00;96904.00;;;;4974549;28;86657;-63
2021/12/04 00:02:51;;;;;;;6.15;4.10;;;-1.50;86.40;-2.10;96901.00;;;;4980805;28;87611;-62
2021/12/04 00:05:19;;;;;;;4.90;4.30;;;-1.50;86.60;-2.20;96901.00;;;;4965858;28;87743;-63
2021/12/04 00:07:45;;;;;;;6.30;4.10;;;-1.60;86.50;-2.20;96900.00;;;;4965399;28;88257;-63
2021/12/04 00:10:21;;;;;;;5.95;4.20;;;-1.60;86.70;-2.30;96895.00;;;;4966570;28;87302;-63
2021/12/04 00:12:48;;;;;;;5.60;3.97;;;-1.70;86.80;-2.30;96899.00;;;;4965389;28;87548;-63
2021/12/04 00:15:15;;;;;;;5.32;4.55;;;-1.70;86.70;-2.30;96906.00;;;;4967596;28;87697;-63
2021/12/04 00:17:41;;;;;;;5.97;4.40;;;-1.80;86.80;-2.40;96892.00;;;;4985814;28;87638;-63
2021/12/04 00:20:09;;;;;;;4.50;3.75;;;-1.80;87.50;-2.40;96903.00;;;;4984714;28;87357;-62
2021/12/04 00:22:35;;;;;;;4.95;3.58;;;-1.90;86.40;-2.40;96896.00;;;;4983885;28;88462;-63
2021/12/04 00:25:03;;;;;;;4.97;4.13;;;-1.90;86.40;-2.50;96891.00;;;;4965756;28;87273;-63
2021/12/04 00:27:29;;;;;;;4.80;3.95;;;-1.90;86.40;-2.50;96900.00;;;;4964407;28;87476;-63
2021/12/04 00:29:57;;;;;;;5.32;3.92;;;-1.90;86.50;-2.40;96902.00;;;;4964110;28;86929;-63
2021/12/04 00:35:23;;;;;;;6.72;4.18;;;-1.90;87.20;-2.50;96898.00;;;;4961460;28;90804;-63
2021/12/04 00:51:20;;;;;;;5.70;4.32;;;-2.00;87.10;-2.70;96907.00;;;;4978140;28;86270;-61
2021/12/04 00:53:47;;;;;;;5.93;4.28;;;-2.10;87.30;-2.80;96907.00;;;;4962555;28;87431;-62
2021/12/04 00:56:14;;;;;;;5.80;4.57;;;-2.20;87.70;-2.80;96904.00;;;;4961911;28;88168;-62
2021/12/04 00:58:40;;;;;;;5.63;4.72;;;-2.20;88.10;-2.80;96907.00;;;;4962040;28;87903;-62
2021/12/04 01:01:06;;;;;;;5.65;4.00;;;-2.20;88.20;-2.80;96890.00;;;;4962239;28;87620;-63
2021/12/04 01:03:36;;;;;;;6.20;4.07;;;-2.20;88.30;-2.80;96889.00;;;;4962027;28;89081;-63
2021/12/04 01:06:02;;;;;;;4.40;3.75;;;-2.20;88.50;-2.70;96903.00;;;;4961710;28;87364;-63
2021/12/04 01:08:28;;;;;;;6.32;4.30;;;-2.10;88.30;-2.70;96906.00;;;;4962039;28;87249;-63
2021/12/04 01:10:54;;;;;;;6.38;4.70;;;-2.20;88.20;-2.80;96891.00;;;;4962300;28;87272;-62
2021/12/04 01:13:21;;;;;;;5.90;4.78;;;-2.10;88.40;-2.80;96899.00;;;;4962157;28;88407;-63
2021/12/04 01:15:47;;;;;;;6.85;4.25;;;-2.20;88.30;-2.80;96893.00;;;;4983713;28;87529;-63
2021/12/04 01:18:13;;;;;;;5.70;4.47;;;-2.20;88.60;-2.80;96903.00;;;;4961423;28;87660;-63
2021/12/04 01:20:39;;;;;;;7.00;5.30;;;-2.20;88.30;-2.90;96889.00;;;;4962257;28;87284;-63
2021/12/04 01:23:07;;;;;;;6.40;5.30;;;-2.30;88.40;-2.90;96896.00;;;;4976012;28;88672;-63
2021/12/04 01:25:35;;;;;;;5.68;4.90;;;-2.30;88.60;-3.00;96904.00;;;;4976967;28;88126;-63
2021/12/04 01:28:04;;;;;;;6.40;5.30;;;-2.40;88.40;-3.00;96890.00;;;;4960856;28;87324;-63
2021/12/04 01:30:31;;;;;;;7.07;4.63;;;-2.40;88.50;-3.00;96891.00;;;;4961561;28;87361;-63
2021/12/04 01:32:57;;;;;;;5.72;5.13;;;-2.40;88.60;-3.00;96897.00;;;;4976850;28;87746;-63
2021/12/04 01:35:23;;;;;;;5.75;4.55;;;-2.40;88.50;-3.10;96898.00;;;;4961806;28;87331;-63
2021/12/04 01:37:49;;;;;;;6.57;4.85;;;-2.40;88.60;-3.10;96898.00;;;;4961812;28;87338;-64
2021/12/04 01:40:17;;;;;;;5.72;4.63;;;-2.40;88.50;-3.10;96901.00;;;;4962182;28;86694;-63
2021/12/04 01:42:44;;;;;;;7.78;5.63;;;-2.40;88.40;-3.10;96908.00;;;;4988057;28;88149;-63
2021/12/04 01:45:11;;;;;;;6.90;5.18;;;-2.40;88.30;-3.10;96916.00;;;;4981166;28;87375;-63
2021/12/04 01:47:37;;;;;;;7.00;5.80;;;-2.50;88.50;-3.10;96913.00;;;;4980416;28;88162;-63
2021/12/04 01:50:06;;;;;;;7.10;4.97;;;-2.50;88.60;-3.10;96905.00;;;;4963963;28;87431;-63
2021/12/04 01:52:33;;;;;;;6.22;5.40;;;-2.50;88.60;-3.00;96916.00;;;;4980935;28;88680;-62
2021/12/04 01:54:59;;;;;;;5.95;4.57;;;-2.40;88.60;-3.00;96919.00;;;;4979864;28;88275;-63
2021/12/04 01:57:26;;;;;;;6.78;5.38;;;-2.40;88.30;-3.00;96909.00;;;;4980948;28;87551;-62
2021/12/04 01:59:52;;;;;;;7.35;5.13;;;-2.40;88.00;-3.00;96909.00;;;;4980196;28;87017;-63
2021/12/04 02:02:19;;;;;;;6.97;5.25;;;-2.40;88.00;-2.90;96907.00;;;;4979716;28;87896;-63
2021/12/04 02:04:45;;;;;;;5.95;4.78;;;-2.40;87.40;-2.90;96907.00;;;;4981292;28;87560;-63
2021/12/04 02:07:13;;;;;;;7.28;5.55;;;-2.40;87.70;-3.00;96913.00;;;;4996415;28;87273;-63
2021/12/04 02:09:39;;;;;;;5.97;4.90;;;-2.40;87.30;-2.90;96911.00;;;;4980524;28;86930;-62
2021/12/04 02:12:08;;;;;;;6.18;5.32;;;-2.40;87.50;-2.90;96919.00;;;;4980338;28;88539;-62
2021/12/04 02:14:41;;;;;;;6.50;5.07;;;-2.40;87.30;-3.00;96912.00;;;;4980293;28;88223;-62
2021/12/04 02:17:08;;;;;;;5.97;5.05;;;-2.40;87.50;-2.90;96922.00;;;;4963625;28;87444;-63
2021/12/04 02:19:34;;;;;;;6.05;4.93;;;-2.40;88.20;-2.80;96924.00;;;;4961170;28;87362;-63
2021/12/04 02:22:01;;;;;;;6.47;4.28;;;-2.30;87.20;-2.80;96923.00;;;;4961634;28;87669;-63
2021/12/04 02:24:27;;;;;;;6.10;5.10;;;-2.30;86.70;-2.80;96925.00;;;;4966466;28;87468;-63
2021/12/04 02:26:53;;;;;;;6.15;4.32;;;-2.30;86.50;-2.70;96921.00;;;;4961134;28;86943;-61
2021/12/04 02:29:19;;;;;;;6.28;4.65;;;-2.20;86.70;-2.70;96934.00;;;;4961016;28;86539;-62
2021/12/04 02:31:48;;;;;;;5.28;4.63;;;-2.20;86.10;-2.70;96932.00;;;;4960862;28;87550;-62
2021/12/04 02:34:28;;;;;;;8.02;5.15;;;-2.20;86.20;-2.60;96938.00;;;;4960623;28;88187;-62
2021/12/04 02:36:56;;;;;;;6.18;4.70;;;-2.10;86.40;-2.60;96935.00;;;;4960270;28;87938;-63
2021/12/04 02:39:30;;;;;;;5.72;4.30;;;-2.10;86.20;-2.40;96938.00;;;;4961001;28;87322;-63
2021/12/04 02:41:57;;;;;;;6.05;4.63;;;-2.00;86.30;-2.40;96943.00;;;;4960912;28;87257;-63
2021/12/04 02:44:38;;;;;;;8.43;4.68;;;-1.90;85.60;-2.40;96934.00;;;;4960812;28;87506;-62
2021/12/04 02:47:06;;;;;;;7.13;4.90;;;-1.90;85.60;-2.40;96935.00;;;;4959759;28;87440;-62
2021/12/04 02:49:33;;;;;;;7.03;5.10;;;-1.90;85.20;-2.50;96921.00;;;;4960814;28;87443;-62
2021/12/04 02:52:08;;;;;;;5.47;4.68;;;-2.00;84.90;-2.50;96937.00;;;;4960412;28;88886;-63
2021/12/04 02:54:36;;;;;;;5.63;4.70;;;-2.00;85.70;-2.50;96926.00;;;;4961075;28;87320;-63
2021/12/04 02:57:06;;;;;;;5.55;4.13;;;-2.10;84.90;-2.70;96941.00;;;;4974851;28;86954;-63
2021/12/04 02:59:33;;;;;;;7.05;4.68;;;-2.20;85.50;-2.70;96936.00;;;;4960428;28;86972;-62
2021/12/04 03:02:00;;;;;;;5.05;4.55;;;-2.30;85.80;-2.80;96937.00;;;;4959936;28;89342;-62
2021/12/04 03:04:27;;;;;;;6.05;4.97;;;-2.30;86.00;-2.90;96932.00;;;;4960249;28;88357;-62
2021/12/04 03:06:54;;;;;;;6.18;4.25;;;-2.40;85.90;-2.80;96948.00;;;;4960727;28;87436;-63
2021/12/04 03:09:20;;;;;;;5.85;4.30;;;-2.30;86.00;-2.80;96954.00;;;;4959552;28;87548;-63
2021/12/04 03:11:47;;;;;;;5.80;4.40;;;-2.30;85.80;-2.80;96937.00;;;;4975804;28;90569;-63
2021/12/04 03:14:13;;;;;;;7.07;4.53;;;-2.30;85.70;-2.90;96947.00;;;;4959731;28;88567;-63
2021/12/04 03:16:41;;;;;;;7.93;5.30;;;-2.30;85.30;-3.00;96945.00;;;;4966280;28;86965;-63
2021/12/04 03:19:08;;;;;;;7.85;5.25;;;-2.40;85.60;-3.10;96939.00;;;;4960559;28;86258;-63
2021/12/04 03:21:36;;;;;;;8.30;4.93;;;-2.50;85.80;-3.20;96957.00;;;;4960325;28;88185;-63
2021/12/04 03:24:12;;;;;;;7.47;4.82;;;-2.60;85.80;-3.20;96951.00;;;;4966323;28;87280;-63
2021/12/04 03:26:38;;;;;;;6.75;4.88;;;-2.60;86.20;-3.20;96953.00;;;;4959903;28;88203;-63
2021/12/04 03:29:10;;;;;;;5.90;4.88;;;-2.70;86.30;-3.20;96959.00;;;;4959943;28;86981;-63
2021/12/04 03:42:21;;;;;;;5.72;4.45;;;-2.40;85.90;-2.70;96952.00;;;;4945212;28;88604;-63
2021/12/04 03:44:48;;;;;;;10.30;4.90;;;-2.30;86.00;-2.70;96948.00;;;;4960342;28;87780;-62
2021/12/04 03:47:14;;;;;;;6.13;4.22;;;-2.20;85.10;-2.70;96955.00;;;;4960131;28;86989;-63
2021/12/04 03:49:40;;;;;;;5.72;3.90;;;-2.20;84.70;-2.60;96946.00;;;;4958849;28;87556;-61
2021/12/04 03:52:07;;;;;;;8.95;4.75;;;-2.10;85.10;-2.60;96955.00;;;;4959248;28;88605;-61
2021/12/04 03:54:34;;;;;;;6.95;5.00;;;-2.20;84.40;-2.60;96931.00;;;;4959460;28;88261;-61
2021/12/04 03:57:03;;;;;;;5.32;4.20;;;-2.10;85.00;-2.60;96956.00;;;;4959544;28;87082;-62
2021/12/04 03:59:31;;;;;;;5.72;4.07;;;-2.20;84.40;-2.60;96957.00;;;;4959327;28;87506;-62
2021/12/04 04:01:57;;;;;;;4.90;3.95;;;-2.10;84.80;-2.40;96951.00;;;;4959183;28;89146;-62
2021/12/04 04:04:23;;;;;;;5.45;4.00;;;-2.00;84.80;-2.20;96962.00;;;;4974896;28;88695;-63
2021/12/04 04:06:49;;;;;;;5.45;3.95;;;-1.80;83.40;-2.10;96962.00;;;;4959550;28;87216;-63
2021/12/04 04:09:16;;;;;;;5.82;3.78;;;-1.80;83.10;-2.10;96975.00;;;;4961840;28;86597;-63
2021/12/04 04:11:42;;;;;;;5.15;3.63;;;-1.60;83.20;-2.00;96949.00;;;;4962964;28;87507;-63
2021/12/04 04:14:09;;;;;;;5.15;4.10;;;-1.60;82.70;-2.00;96958.00;;;;4962712;28;88322;-63
2021/12/04 04:16:39;;;;;;;4.60;3.83;;;-1.60;82.40;-1.80;96956.00;;;;4968174;28;88046;-63
2021/12/04 04:19:06;;;;;;;5.38;4.15;;;-1.50;82.50;-1.70;96962.00;;;;4962839;28;86912;-63
2021/12/04 04:21:39;;;;;;;5.05;4.07;;;-1.40;81.70;-1.80;96972.00;;;;4962613;28;88328;-63
2021/12/04 04:24:09;;;;;;;5.53;3.60;;;-1.50;81.60;-1.90;96971.00;;;;4969146;28;87454;-63
2021/12/04 04:26:37;;;;;;;8.18;4.63;;;-1.50;82.20;-1.90;96973.00;;;;4961245;28;86997;-63
2021/12/04 04:29:05;;;;;;;7.22;4.40;;;-1.50;82.00;-1.90;96974.00;;;;4961973;28;87337;-62
2021/12/04 04:31:33;;;;;;;4.82;3.80;;;-1.50;81.60;-2.00;96979.00;;;;4977719;28;87707;-62
2021/12/04 04:34:04;;;;;;;7.40;4.60;;;-1.60;82.40;-2.10;96979.00;;;;4962986;28;87356;-62
2021/12/04 05:11:36;;;;;;;5.28;4.28;;;-1.70;82.20;-2.00;97000.00;;;;4961887;28;86910;-62
2021/12/04 05:14:04;;;;;;;5.32;3.83;;;-1.60;82.50;-1.90;97015.00;;;;4961813;28;89567;-63
2021/12/04 05:16:49;;;;;;;6.40;4.00;;;-1.60;82.40;-2.00;97018.00;;;;4974037;28;87998;-64
2021/12/04 05:22:15;;;;;;;4.88;3.90;;;-1.60;82.10;-2.00;97026.00;;;;4969578;28;87481;-60
2021/12/04 05:24:42;;;;;;;6.10;4.30;;;-1.60;83.10;-2.00;97015.00;;;;4981280;28;88245;-62
2021/12/04 05:27:09;;;;;;;5.43;4.00;;;-1.60;82.50;-2.00;97027.00;;;;4977090;28;87339;-62
2021/12/04 05:29:35;;;;;;;4.97;4.38;;;-1.60;82.70;-2.00;97024.00;;;;4960790;28;87314;-62
2021/12/04 05:32:04;;;;;;;5.07;3.42;;;-1.60;82.50;-2.00;97031.00;;;;4961604;28;87429;-61
2021/12/04 05:34:31;;;;;;;5.90;3.47;;;-1.60;82.30;-2.00;97032.00;;;;4960919;28;88955;-62
2021/12/04 05:36:58;;;;;;;8.35;3.92;;;-1.70;82.30;-1.90;97032.00;;;;4961013;28;88562;-62
2021/12/04 05:39:26;;;;;;;5.60;3.95;;;-1.60;82.40;-1.80;97039.00;;;;4961813;28;86957;-62
2021/12/04 05:41:52;;;;;;;5.63;3.90;;;-1.50;82.10;-1.90;97042.00;;;;4960555;28;87430;-62
2021/12/04 05:44:23;;;;;;;6.18;4.28;;;-1.50;82.40;-1.90;97038.00;;;;4961410;28;87702;-62
2021/12/04 05:47:01;;;;;;;3.90;3.47;;;-1.50;82.30;-1.90;97043.00;;;;4961060;28;87490;-63
2021/12/04 05:49:51;;;;;;;5.47;3.13;;;-1.50;82.40;-1.70;97042.00;;;;4961650;28;87514;-62
2021/12/04 05:52:36;;;;;;;6.25;4.05;;;-1.40;83.20;-1.80;97048.00;;;;4962245;28;86522;-62
2021/12/04 05:57:40;;;;;;;7.20;3.97;;;-1.50;82.70;-1.90;97044.00;;;;4980836;28;87317;-61
2021/12/04 06:00:11;;;;;;;5.00;3.65;;;-1.50;81.90;-1.90;97042.00;;;;4980685;28;87984;-61
2021/12/04 06:02:37;;;;;;;4.38;3.72;;;-1.50;82.60;-1.70;97063.00;;;;4981082;28;87345;-61
2021/12/04 06:05:04;;;;;;;6.65;4.38;;;-1.30;81.70;-1.70;97058.00;;;;4980482;28;89566;-61
2021/12/04 06:07:30;;;;;;;5.10;3.90;;;-1.40;82.00;-1.90;97059.00;;;;4980142;28;88386;-61
2021/12/04 06:09:56;;;;;;;5.93;4.15;;;-1.50;82.10;-2.00;97062.00;;;;4980909;28;87309;-62
2021/12/04 06:12:22;;;;;;;5.80;4.45;;;-1.60;82.40;-2.00;97074.00;;;;4980739;28;87384;-62
2021/12/04 06:14:49;;;;;;;6.30;4.18;;;-1.70;82.70;-2.00;97060.00;;;;4974788;28;87678;-64
2021/12/04 06:17:18;;;;;;;5.78;4.63;;;-1.60;82.50;-2.00;97065.00;;;;4979127;28;87440;-66
2021/12/04 06:22:43;;;;;;;6.30;4.32;;;-1.60;83.40;-1.80;97091.00;;;;4980544;28;87029;-62
2021/12/04 06:25:14;;;;;;;6.22;4.28;;;-1.50;82.60;-1.90;97096.00;;;;4979461;28;89927;-62
2021/12/04 06:27:41;;;;;;;5.07;4.28;;;-1.50;82.80;-1.90;97070.00;;;;4980057;28;88456;-62
2021/12/04 06:30:13;;;;;;;5.85;4.43;;;-1.60;83.80;-1.80;97079.00;;;;4980285;28;87139;-62
2021/12/04 06:32:39;;;;;;;7.68;4.68;;;-1.40;83.30;-1.70;97095.00;;;;4979813;28;87002;-62
2021/12/04 06:35:10;;;;;;;8.13;4.75;;;-1.40;82.20;-1.80;97099.00;;;;4980439;28;87516;-62
2021/12/04 06:37:36;;;;;;;5.63;4.70;;;-1.50;82.90;-1.90;97096.00;;;;4971462;28;87782;-63
2021/12/04 06:40:05;;;;;;;6.97;4.60;;;-1.50;83.30;-1.90;97078.00;;;;4960803;28;87284;-63
2021/12/04 06:42:31;;;;;;;5.63;4.55;;;-1.50;83.30;-1.90;97105.00;;;;4960766;28;86730;-63
2021/12/04 06:44:57;;;;;;;8.07;4.57;;;-1.50;83.70;-2.00;97095.00;;;;4960426;28;87647;-63
2021/12/04 06:47:24;;;;;;;7.30;4.47;;;-1.60;83.90;-2.00;97096.00;;;;4974901;28;88691;-61
2021/12/04 06:49:54;;;;;;;8.77;5.53;;;-1.70;84.30;-2.00;97110.00;;;;4959932;28;88106;-62
2021/12/04 06:52:24;;;;;;;7.68;5.05;;;-1.60;85.70;-2.10;97112.00;;;;4957162;28;86992;-63
2021/12/04 06:54:55;;;;;;;5.45;4.45;;;-1.70;86.70;-2.00;97117.00;;;;4959987;28;88224;-62
2021/12/04 06:57:22;;;;;;;7.37;4.70;;;-1.60;86.10;-2.00;97110.00;;;;4959642;28;87337;-64
2021/12/04 06:59:52;;;;;;;6.03;4.53;;;-1.60;85.60;-2.00;97126.00;;;;4960025;28;87481;-62
2021/12/04 07:02:18;;;;;;;5.82;4.47;;;-1.60;84.50;-2.00;97133.00;;;;4960477;28;87254;-62
2021/12/04 07:04:45;;;;;;;6.40;4.38;;;-1.60;84.60;-2.00;97139.00;;;;4959960;28;87544;-64
2021/12/04 07:07:11;;;;;;;6.40;4.05;;;-1.50;84.10;-2.00;97144.00;;;;4960502;28;87316;-62
2021/12/04 07:09:38;;;;;;;5.85;4.57;;;-1.60;84.20;-2.00;97147.00;;;;4960190;28;87309;-62
2021/12/04 07:12:08;;;;;;;5.43;4.13;;;-1.60;84.60;-2.10;97160.00;;;;4960330;28;87288;-63
2021/12/04 07:14:34;;;;;;;6.72;4.75;;;-1.70;84.70;-2.10;97160.00;;;;4959555;28;88855;-63
2021/12/04 07:17:03;;;;;;;5.72;4.40;;;-1.70;85.30;-2.10;97161.00;;;;4976339;28;88788;-63
2021/12/04 07:19:31;;;;;;;5.93;4.80;;;-1.60;85.40;-2.00;97170.00;;;;4979760;28;87362;-66
2021/12/04 07:21:58;;;;;;;9.15;4.88;;;-1.60;85.30;-2.00;97174.00;;;;4979859;28;87350;-64
2021/12/04 07:24:26;;;;;;;6.47;4.63;;;-1.60;85.50;-2.00;97171.00;;;;4965554;28;87243;-61
2021/12/04 07:26:52;;;;;;;5.68;3.85;;;-1.60;84.90;-2.00;97174.00;;;;4959328;28;87254;-64
2021/12/04 07:29:19;;;;;;;4.82;3.25;;;-1.60;84.10;-2.00;97181.00;;;;4960373;28;87796;-63
2021/12/04 07:31:45;;;;;;;5.72;3.60;;;-1.50;83.90;-1.90;97186.00;;;;4959877;28;86822;-64
2021/12/04 07:34:11;;;;;;;3.33;3.03;;;-1.50;83.30;-1.90;97190.00;;;;4974580;28;88497;-63
2021/12/04 07:36:37;;;;;;;3.60;3.13;;;-1.40;82.70;-1.80;97210.00;;;;4958995;28;88372;-63
2021/12/04 07:39:05;;;;;;;4.60;2.75;;;-1.40;82.40;-1.80;97209.00;;;;4958803;28;87915;-65
2021/12/04 07:41:31;;;;;;;4.60;3.15;;;-1.40;81.60;-1.70;97210.00;;;;4959195;28;87491;-64
2021/12/04 07:43:57;;;;;;;3.70;2.95;;;-1.30;81.20;-1.70;97219.00;;;;4962643;28;87801;-64
2021/12/04 07:46:24;;;;;;;3.58;3.10;;;-1.20;81.20;-1.70;97219.00;;;;4963254;28;87451;-62
2021/12/04 07:48:50;;;;;;;7.35;3.40;;;-1.20;81.10;-1.70;97224.00;;;;4963247;28;87349;-63
2021/12/04 07:51:19;;;;;;;6.22;2.78;;;-1.30;79.90;-1.80;97234.00;;;;4963019;28;87310;-63
2021/12/04 07:53:49;;;;;;;3.28;2.58;;;-1.40;79.80;-1.90;97238.00;;;;4962935;28;88652;-63
2021/12/04 07:56:16;;;;;;;2.90;2.60;;;-1.40;78.80;-1.90;97260.00;;;;4971188;28;87288;-63
2021/12/04 07:58:43;;;;;;;4.22;3.10;;;-1.40;78.50;-2.00;97271.00;;;;4981645;28;87012;-64
2021/12/04 08:01:10;;;;;;;4.28;2.95;;;-1.50;77.80;-2.10;97276.00;;;;4981626;28;87035;-64
2021/12/04 08:03:38;;;;;;;4.43;2.75;;;-1.50;76.00;-2.10;97273.00;;;;4981918;28;88443;-63
2021/12/04 08:06:05;;;;;;;5.57;3.20;;;-1.60;75.80;-2.20;97272.00;;;;4981805;28;88406;-63
2021/12/04 08:08:32;;;;;;;3.53;2.40;;;-1.60;74.20;-2.20;97281.00;;;;4982300;28;87716;-64
2021/12/04 08:10:58;;;;;;;4.75;2.60;;;-1.70;72.20;-2.20;97297.00;;;;4981114;28;87393;-64
2021/12/04 08:13:25;;;;;;;5.00;3.35;;;-1.70;72.70;-2.20;97290.00;;;;4982247;28;87664;-64
2021/12/04 08:15:51;;;;;;;2.58;1.90;;;-1.70;73.00;-2.30;97283.00;;;;4967765;28;87566;-65
2021/12/04 08:18:17;;;;;;;3.50;2.03;;;-1.80;72.50;-2.40;97291.00;;;;4961880;28;87143;-64
2021/12/04 08:20:45;;;;;;;3.88;2.15;;;-1.90;70.00;-2.50;97308.00;;;;4963502;28;86277;-65
2021/12/04 08:23:11;;;;;;;3.15;1.92;;;-2.00;70.00;-2.70;97306.00;;;;4962464;28;87509;-64
2021/12/04 08:25:37;;;;;;;2.10;1.83;;;-2.10;68.80;-2.70;97310.00;;;;4962469;28;87285;-62
2021/12/04 08:28:04;;;;;;;2.88;2.10;;;-2.10;69.60;-2.70;97301.00;;;;4962329;28;88004;-64
2021/12/04 08:30:34;;;;;;;2.58;2.13;;;-2.20;69.80;-2.70;97328.00;;;;4962465;28;87022;-63
2021/12/04 08:33:00;;;;;;;2.17;1.70;;;-2.20;69.60;-2.80;97317.00;;;;4962225;28;88570;-65
2021/12/04 08:35:31;;;;;;;2.42;1.73;;;-2.20;69.30;-2.90;97326.00;;;;4961166;28;88596;-63
2021/12/04 08:37:58;;;;;;;3.03;2.38;;;-2.30;69.20;-2.90;97320.00;;;;4961549;28;87542;-62
2021/12/04 08:40:27;;;;;;;2.97;2.20;;;-2.40;68.50;-3.00;97326.00;;;;4961764;28;87549;-64
2021/12/04 08:42:53;;;;;;;2.47;1.92;;;-2.40;70.30;-3.00;97312.00;;;;4960542;28;87670;-65
2021/12/04 08:45:19;;;;;;;4.05;1.90;;;-2.40;69.60;-3.00;97348.00;;;;4962436;28;88391;-64
2021/12/04 08:47:46;;;;;;;3.80;2.45;;;-2.40;69.80;-3.10;97324.00;;;;4961053;28;87682;-62
2021/12/04 08:50:18;;;;;;;3.00;2.55;;;-2.50;69.90;-3.10;97337.00;;;;4962202;28;87007;-63
2021/12/04 08:52:45;;;;;;;4.70;2.30;;;-2.50;70.00;-3.20;97324.00;;;;4961244;28;88588;-63
2021/12/04 08:55:13;;;;;;;3.92;2.67;;;-2.50;70.70;-3.10;97333.00;;;;4961536;28;88337;-63
2021/12/04 08:57:39;;;;;;;2.78;2.40;;;-2.50;70.60;-3.10;97332.00;;;;4981468;28;86952;-64
2021/12/04 09:00:15;;;;;;;3.85;2.72;;;-2.50;69.90;-3.10;97324.00;;;;4981832;28;87142;-61
2021/12/04 09:02:43;;;;;;;5.90;2.33;;;-2.50;70.20;-3.00;97318.00;;;;4981396;28;87506;-61
2021/12/04 09:05:10;;;;;;;3.47;2.50;;;-2.40;68.90;-2.80;97334.00;;;;4981122;28;87562;-64
2021/12/04 09:07:37;;;;;;;2.88;2.00;;;-2.20;68.70;-2.70;97343.00;;;;4981353;28;87053;-61
2021/12/04 09:10:05;;;;;;;2.85;1.80;;;-2.10;67.90;-2.70;97337.00;;;;4981481;28;86173;-61
2021/12/04 09:12:33;;;;;;;3.00;2.20;;;-2.20;67.70;-2.80;97343.00;;;;4980886;28;86962;-61
2021/12/04 09:15:01;;;;;;;2.55;1.80;;;-2.20;67.10;-2.90;97335.00;;;;4980426;28;87566;-65
2021/12/04 09:17:29;;;;;;;3.55;1.80;;;-2.20;67.20;-2.80;97343.00;;;;4996201;28;88349;-67
2021/12/04 09:19:56;;;;;;;2.20;2.00;;;-2.20;66.50;-2.80;97338.00;;;;4980245;28;87645;-63
2021/12/04 09:22:29;;;;;;;3.33;2.20;;;-2.20;67.00;-2.90;97350.00;;;;4966857;28;88539;-63
2021/12/04 09:24:59;;;;;;;5.10;1.70;;;-2.30;67.10;-3.00;97363.00;;;;4961431;28;87230;-62
2021/12/04 10:21:05;;;;;;;4.18;2.45;;;-2.20;67.10;-2.70;97411.00;;;;4960409;28;86978;-64
2021/12/04 10:34:53;;;;;;;3.55;2.72;;;-2.10;69.90;-2.50;97408.00;;;;4959993;28;87564;-63
2021/12/04 10:37:26;;;;;;;6.93;3.38;;;-2.10;69.40;-2.50;97427.00;;;;4959437;28;88647;-65
2021/12/04 10:39:56;;;;;;;3.67;2.83;;;-2.00;70.00;-2.50;97437.00;;;;4960575;28;88241;-64
2021/12/04 10:42:27;;;;;;;3.47;2.85;;;-2.00;69.70;-2.50;97433.00;;;;4959276;28;86981;-63
2021/12/04 10:44:55;;;;;;;5.00;2.97;;;-2.00;69.60;-2.50;97425.00;;;;4960098;28;87232;-63
2021/12/04 10:47:25;;;;;;;4.43;2.95;;;-2.10;69.80;-2.50;97442.00;;;;4964691;28;88243;-62
2021/12/04 10:53:03;;;;;;;4.55;3.13;;;-2.10;71.20;-2.50;97425.00;;;;4979789;28;86870;-63
2021/12/04 10:56:06;;;;;;;4.35;2.95;;;-2.10;70.40;-2.60;97448.00;;;;4980140;28;86594;-62
2021/12/04 11:07:32;;;;;;;4.10;2.95;;;-2.20;69.80;-2.60;97461.00;;;;4979165;28;87239;-63
2021/12/04 11:42:59;;;;;;;6.00;3.90;;;-2.30;72.50;-2.70;97498.00;;;;4979635;28;87398;-66
2021/12/04 11:45:39;;;;;;;5.90;3.40;;;-2.20;72.20;-2.70;97502.00;;;;4979271;28;87335;-64
2021/12/04 11:48:05;;;;;;;5.40;3.78;;;-2.30;72.20;-2.80;97501.00;;;;4979265;28;87030;-61
2021/12/04 11:50:42;;;;;;;6.40;4.15;;;-2.30;72.40;-2.80;97495.00;;;;4979158;28;86695;-63
2021/12/04 11:53:17;;;;;;;3.72;3.05;;;-2.30;72.80;-2.90;97494.00;;;;4979220;28;88424;-63
2021/12/04 11:55:47;;;;;;;4.03;3.13;;;-2.40;72.00;-2.90;97496.00;;;;4974020;28;87310;-64
2021/12/04 11:58:24;;;;;;;5.03;3.00;;;-2.50;71.50;-3.00;97492.00;;;;4959146;28;88259;-63
2021/12/04 12:01:00;;;;;;;4.75;3.40;;;-2.50;71.40;-3.00;97501.00;;;;4959251;28;87358;-63
2021/12/04 12:03:31;;;;;;;4.05;3.00;;;-2.50;72.30;-3.00;97515.00;;;;4959390;28;87747;-62
2021/12/04 12:06:00;;;;;;;5.32;3.35;;;-2.50;73.20;-3.00;97511.00;;;;4958626;28;87403;-62
2021/12/04 12:08:37;;;;;;;4.45;3.10;;;-2.50;73.40;-3.10;97516.00;;;;4958690;28;87295;-62
2021/12/04 12:11:10;;;;;;;5.63;3.80;;;-2.60;73.30;-3.10;97513.00;;;;4959121;28;86954;-63
2021/12/04 12:13:47;;;;;;;4.18;3.25;;;-2.60;73.70;-3.10;97523.00;;;;4959253;28;87642;-62
2021/12/04 12:16:20;;;;;;;4.00;2.72;;;-2.60;74.00;-3.20;97521.00;;;;4967367;28;88552;-63
2021/12/04 12:18:58;;;;;;;3.28;2.63;;;-2.60;73.00;-3.20;97525.00;;;;4979191;28;87316;-62
2021/12/04 12:21:41;;;;;;;4.35;2.83;;;-2.70;72.80;-3.20;97538.00;;;;4973126;28;86983;-62
2021/12/04 12:32:58;;;;;;;4.20;2.97;;;-2.70;73.40;-3.30;97553.00;;;;4962285;28;87383;-63
2021/12/04 12:36:09;;;;;;;3.35;2.75;;;-2.80;73.40;-3.40;97545.00;;;;4961410;28;87918;-62
2021/12/04 12:38:59;;;;;;;3.75;2.22;;;-2.80;73.40;-3.40;97562.00;;;;4960498;28;88490;-63
2021/12/04 12:41:42;;;;;;;4.00;2.20;;;-2.90;71.20;-3.50;97568.00;;;;4961592;28;87367;-62
2021/12/04 12:44:14;;;;;;;2.67;2.05;;;-3.00;70.70;-3.60;97546.00;;;;4963136;28;86751;-63
2021/12/04 12:46:57;;;;;;;4.00;2.17;;;-3.00;70.90;-3.60;97556.00;;;;4976815;28;87828;-63
2021/12/04 12:49:29;;;;;;;2.85;1.95;;;-3.00;70.70;-3.60;97554.00;;;;4960815;28;87400;-62
2021/12/04 12:52:01;;;;;;;1.60;1.50;;;-3.00;70.40;-3.70;97561.00;;;;4961491;28;88379;-63
2021/12/04 12:54:53;;;;;;;2.83;1.85;;;-3.10;69.70;-3.70;97564.00;;;;4961995;28;86899;-62
2021/12/04 12:57:31;;;;;;;2.78;2.03;;;-3.10;70.30;-3.70;97563.00;;;;4961211;28;88376;-63
2021/12/04 13:11:54;;;;;;;4.50;2.70;;;-3.20;71.00;-3.80;97581.00;;;;4960657;28;88565;-63
2021/12/04 13:14:46;;;;;;;3.45;2.50;;;-3.20;71.40;-3.80;97585.00;;;;4961787;28;87210;-61
2021/12/04 13:17:23;;;;;;;5.28;2.55;;;-3.20;71.30;-3.80;97573.00;;;;4978878;28;87036;-62
2021/12/04 13:19:53;;;;;;;2.67;2.20;;;-3.20;71.50;-3.80;97596.00;;;;4980394;28;88525;-61
2021/12/04 13:22:24;;;;;;;3.88;2.45;;;-3.20;71.30;-3.80;97598.00;;;;4980686;28;88126;-62
2021/12/04 13:24:54;;;;;;;4.25;2.97;;;-3.20;71.90;-3.80;97601.00;;;;4964294;28;87267;-62
2021/12/04 13:29:56;;;;;;;4.90;3.17;;;-3.20;72.00;-3.80;97605.00;;;;4961133;28;88169;-62
2021/12/04 13:32:35;;;;;;;3.60;3.17;;;-3.20;72.20;-3.90;97619.00;;;;4960636;28;87372;-62
2021/12/04 13:35:20;;;;;;;6.03;3.90;;;-3.30;72.60;-3.90;97627.00;;;;4961339;28;87333;-62
2021/12/04 13:37:54;;;;;;;4.30;3.40;;;-3.30;73.20;-3.90;97623.00;;;;4961770;28;86571;-63
2021/12/04 13:40:22;;;;;;;5.45;2.85;;;-3.30;72.50;-3.90;97628.00;;;;4961082;28;87693;-62
2021/12/04 13:42:49;;;;;;;3.95;3.20;;;-3.30;72.10;-3.90;97631.00;;;;4960777;28;87316;-63
2021/12/04 13:45:19;;;;;;;4.68;3.20;;;-3.30;72.10;-3.90;97629.00;;;;4961106;28;88073;-62
2021/12/04 13:47:54;;;;;;;6.28;3.58;;;-3.30;72.50;-3.90;97624.00;;;;4959816;28;87390;-64
2021/12/04 13:52:56;;;;;;;4.93;3.45;;;-3.30;72.70;-3.90;97635.00;;;;4961075;28;88641;-63
2021/12/04 13:55:25;;;;;;;7.63;3.40;;;-3.30;71.90;-3.80;97645.00;;;;4959815;28;87294;-63
2021/12/04 13:57:51;;;;;;;4.82;3.70;;;-3.30;71.90;-3.90;97637.00;;;;4960984;28;87190;-63
2021/12/04 14:00:18;;;;;;;4.30;3.63;;;-3.30;72.30;-3.90;97651.00;;;;4960947;28;87945;-62
2021/12/04 14:02:45;;;;;;;5.00;3.75;;;-3.30;72.00;-3.90;97649.00;;;;4976476;28;86432;-63
2021/12/04 14:05:19;;;;;;;5.75;3.42;;;-3.30;70.80;-3.90;97640.00;;;;4960334;28;87169;-62
2021/12/04 14:07:54;;;;;;;5.57;3.25;;;-3.30;70.50;-3.90;97654.00;;;;4960830;28;87074;-62
2021/12/04 14:10:34;;;;;;;3.55;3.00;;;-3.30;71.00;-3.90;97651.00;;;;4960495;28;89033;-63
2021/12/04 14:13:03;;;;;;;3.42;2.88;;;-3.30;69.80;-3.90;97661.00;;;;4961063;28;88297;-61
2021/12/04 14:15:30;;;;;;;3.63;2.88;;;-3.30;68.60;-3.90;97657.00;;;;4967769;28;87245;-62
2021/12/04 14:18:09;;;;;;;4.40;2.92;;;-3.30;68.70;-4.00;97650.00;;;;4960863;28;87110;-63
2021/12/04 14:20:39;;;;;;;3.92;2.97;;;-3.30;68.60;-4.00;97662.00;;;;4961218;28;87285;-63
2021/12/04 14:23:06;;;;;;;4.68;3.13;;;-3.40;68.00;-4.00;97657.00;;;;4966603;28;87365;-62
2021/12/04 14:25:32;;;;;;;3.97;2.45;;;-3.40;67.20;-4.10;97647.00;;;;4960712;28;87646;-63
2021/12/04 14:28:00;;;;;;;8.10;2.65;;;-3.40;66.50;-4.10;97675.00;;;;4960984;28;86621;-62
2021/12/04 14:30:33;;;;;;;3.00;2.42;;;-3.50;66.50;-4.10;97665.00;;;;4960187;28;87641;-62